sensor_id;sensor_type;location;lat;lon;timestamp;P1;durP1;ratioP1;P2;durP2;ratioP2
5054;SDS011;13829;48.990;8.346;2024-02-14T00:00:54;4.67;;;3.50;;
5054;SDS011;13829;48.990;8.346;2024-02-14T00:03:21;7.10;;;3.50;;
5054;SDS011;13829;48.990;8.346;2024-02-14T00:05:49;4.80;;;3.60;;
5054;SDS011;13829;48.990;8.346;2024-02-14T00:08:17;4.13;;;2.83;;
5054;SDS011;13829;48.990;8.346;2024-02-14T00:10:44;4.23;;;3.23;;
5054;SDS011;13829;48.990;8.346;2024-02-14T00:13:13;6.47;;;3.33;;
5054;SDS011;13829;48.990;8.346;2024-02-14T00:15:43;4.73;;;3.83;;
5054;SDS011;13829;48.990;8.346;2024-02-14T00:18:11;5.60;;;3.33;;
5054;SDS011;13829;48.990;8.346;2024-02-14T00:20:38;5.10;;;3.60;;
5054;SDS011;13829;48.990;8.346;2024-02-14T00:23:05;5.90;;;3.40;;
5054;SDS011;13829;48.990;8.346;2024-02-14T00:25:32;5.00;;;3.47;;
5054;SDS011;13829;48.990;8.346;2024-02-14T00:27:59;5.80;;;3.97;;
5054;SDS011;13829;48.990;8.346;2024-02-14T00:30:30;5.57;;;3.50;;
5054;SDS011;13829;48.990;8.346;2024-02-14T00:32:57;3.63;;;3.00;;
5054;SDS011;13829;48.990;8.346;2024-02-14T00:35:24;4.73;;;3.67;;
5054;SDS011;13829;48.990;8.346;2024-02-14T00:37:51;5.37;;;3.20;;
5054;SDS011;13829;48.990;8.346;2024-02-14T00:40:18;4.10;;;3.03;;
5054;SDS011;13829;48.990;8.346;2024-02-14T00:42:45;4.70;;;3.23;;
5054;SDS011;13829;48.990;8.346;2024-02-14T00:45:12;6.57;;;3.43;;
5054;SDS011;13829;48.990;8.346;2024-02-14T00:47:40;4.93;;;3.00;;
5054;SDS011;13829;48.990;8.346;2024-02-14T00:50:07;4.87;;;3.40;;
5054;SDS011;13829;48.990;8.346;2024-02-14T00:52:35;4.70;;;3.17;;
5054;SDS011;13829;48.990;8.346;2024-02-14T00:55:02;4.57;;;3.20;;
5054;SDS011;13829;48.990;8.346;2024-02-14T00:57:30;5.40;;;3.27;;
5054;SDS011;13829;48.990;8.346;2024-02-14T00:59:58;6.57;;;3.03;;
5054;SDS011;13829;48.990;8.346;2024-02-14T01:02:25;5.47;;;3.17;;
5054;SDS011;13829;48.990;8.346;2024-02-14T01:04:53;7.20;;;3.70;;
5054;SDS011;13829;48.990;8.346;2024-02-14T01:07:20;3.23;;;2.90;;
5054;SDS011;13829;48.990;8.346;2024-02-14T01:09:47;7.57;;;3.70;;
5054;SDS011;13829;48.990;8.346;2024-02-14T01:12:15;5.30;;;3.87;;
5054;SDS011;13829;48.990;8.346;2024-02-14T01:14:42;7.50;;;3.40;;
5054;SDS011;13829;48.990;8.346;2024-02-14T01:17:09;4.87;;;4.03;;
5054;SDS011;13829;48.990;8.346;2024-02-14T01:19:36;6.50;;;3.70;;
5054;SDS011;13829;48.990;8.346;2024-02-14T01:22:04;5.10;;;3.93;;
5054;SDS011;13829;48.990;8.346;2024-02-14T01:24:33;5.77;;;3.30;;
5054;SDS011;13829;48.990;8.346;2024-02-14T01:27:00;5.10;;;3.33;;
5054;SDS011;13829;48.990;8.346;2024-02-14T01:29:27;4.87;;;3.17;;
5054;SDS011;13829;48.990;8.346;2024-02-14T01:31:54;6.03;;;3.60;;
5054;SDS011;13829;48.990;8.346;2024-02-14T01:34:21;5.80;;;3.73;;
5054;SDS011;13829;48.990;8.346;2024-02-14T01:36:48;5.00;;;3.87;;
5054;SDS011;13829;48.990;8.346;2024-02-14T01:39:17;4.77;;;3.60;;
5054;SDS011;13829;48.990;8.346;2024-02-14T01:41:44;5.97;;;3.53;;
5054;SDS011;13829;48.990;8.346;2024-02-14T01:44:13;4.60;;;3.13;;
5054;SDS011;13829;48.990;8.346;2024-02-14T01:46:40;6.20;;;3.97;;
5054;SDS011;13829;48.990;8.346;2024-02-14T01:49:08;5.93;;;3.80;;
5054;SDS011;13829;48.990;8.346;2024-02-14T01:51:36;5.60;;;4.03;;
5054;SDS011;13829;48.990;8.346;2024-02-14T01:54:07;6.23;;;4.30;;
5054;SDS011;13829;48.990;8.346;2024-02-14T01:56:37;5.27;;;3.87;;
5054;SDS011;13829;48.990;8.346;2024-02-14T01:59:05;4.97;;;4.20;;
5054;SDS011;13829;48.990;8.346;2024-02-14T02:01:33;5.10;;;3.70;;
5054;SDS011;13829;48.990;8.346;2024-02-14T02:04:01;5.40;;;3.73;;
5054;SDS011;13829;48.990;8.346;2024-02-14T02:06:30;5.83;;;3.43;;
5054;SDS011;13829;48.990;8.346;2024-02-14T02:08:58;5.80;;;4.27;;
5054;SDS011;13829;48.990;8.346;2024-02-14T02:11:26;7.23;;;4.23;;
5054;SDS011;13829;48.990;8.346;2024-02-14T02:13:54;5.40;;;3.50;;
5054;SDS011;13829;48.990;8.346;2024-02-14T02:16:21;5.57;;;4.03;;
5054;SDS011;13829;48.990;8.346;2024-02-14T02:18:48;5.30;;;3.87;;
5054;SDS011;13829;48.990;8.346;2024-02-14T02:21:15;6.30;;;3.73;;
5054;SDS011;13829;48.990;8.346;2024-02-14T02:23:46;4.80;;;3.83;;
5054;SDS011;13829;48.990;8.346;2024-02-14T02:26:13;3.80;;;3.47;;
5054;SDS011;13829;48.990;8.346;2024-02-14T02:28:40;7.50;;;4.03;;
5054;SDS011;13829;48.990;8.346;2024-02-14T02:31:07;5.13;;;3.47;;
5054;SDS011;13829;48.990;8.346;2024-02-14T02:33:35;6.03;;;3.97;;
5054;SDS011;13829;48.990;8.346;2024-02-14T02:36:02;4.83;;;4.20;;
5054;SDS011;13829;48.990;8.346;2024-02-14T02:38:31;6.57;;;4.20;;
5054;SDS011;13829;48.990;8.346;2024-02-14T02:40:59;5.77;;;3.93;;
5054;SDS011;13829;48.990;8.346;2024-02-14T02:43:26;3.87;;;3.43;;
5054;SDS011;13829;48.990;8.346;2024-02-14T02:45:53;5.33;;;4.10;;
5054;SDS011;13829;48.990;8.346;2024-02-14T02:48:22;3.90;;;3.37;;
5054;SDS011;13829;48.990;8.346;2024-02-14T02:50:49;5.60;;;4.03;;
5054;SDS011;13829;48.990;8.346;2024-02-14T02:53:16;5.20;;;3.93;;
5054;SDS011;13829;48.990;8.346;2024-02-14T02:55:44;4.87;;;3.97;;
5054;SDS011;13829;48.990;8.346;2024-02-14T02:58:13;5.60;;;3.90;;
5054;SDS011;13829;48.990;8.346;2024-02-14T03:00:40;5.80;;;3.80;;
5054;SDS011;13829;48.990;8.346;2024-02-14T03:03:07;6.87;;;3.47;;
5054;SDS011;13829;48.990;8.346;2024-02-14T03:05:35;6.30;;;3.50;;
5054;SDS011;13829;48.990;8.346;2024-02-14T03:08:04;4.23;;;3.17;;
5054;SDS011;13829;48.990;8.346;2024-02-14T03:10:32;4.30;;;3.50;;
5054;SDS011;13829;48.990;8.346;2024-02-14T03:12:59;7.60;;;2.90;;
5054;SDS011;13829;48.990;8.346;2024-02-14T03:15:28;4.10;;;3.70;;
5054;SDS011;13829;48.990;8.346;2024-02-14T03:17:55;5.47;;;3.30;;
5054;SDS011;13829;48.990;8.346;2024-02-14T03:20:22;4.77;;;3.43;;
5054;SDS011;13829;48.990;8.346;2024-02-14T03:22:49;5.57;;;3.27;;
5054;SDS011;13829;48.990;8.346;2024-02-14T03:25:17;5.10;;;3.30;;
5054;SDS011;13829;48.990;8.346;2024-02-14T03:27:46;5.53;;;3.53;;
5054;SDS011;13829;48.990;8.346;2024-02-14T03:30:17;5.73;;;3.17;;
5054;SDS011;13829;48.990;8.346;2024-02-14T03:32:46;7.20;;;3.60;;
5054;SDS011;13829;48.990;8.346;2024-02-14T03:35:14;6.17;;;3.43;;
5054;SDS011;13829;48.990;8.346;2024-02-14T03:37:43;4.80;;;3.77;;
5054;SDS011;13829;48.990;8.346;2024-02-14T03:40:13;5.10;;;3.27;;
5054;SDS011;13829;48.990;8.346;2024-02-14T03:42:41;4.97;;;2.90;;
5054;SDS011;13829;48.990;8.346;2024-02-14T03:45:08;5.43;;;3.50;;
5054;SDS011;13829;48.990;8.346;2024-02-14T03:47:35;6.57;;;3.63;;
5054;SDS011;13829;48.990;8.346;2024-02-14T03:50:06;8.90;;;3.70;;
5054;SDS011;13829;48.990;8.346;2024-02-14T03:52:34;3.83;;;2.90;;
5054;SDS011;13829;48.990;8.346;2024-02-14T03:55:01;5.03;;;2.90;;
5054;SDS011;13829;48.990;8.346;2024-02-14T03:57:29;5.97;;;3.23;;
5054;SDS011;13829;48.990;8.346;2024-02-14T03:59:57;5.27;;;3.50;;
5054;SDS011;13829;48.990;8.346;2024-02-14T04:02:26;3.57;;;3.00;;
5054;SDS011;13829;48.990;8.346;2024-02-14T04:04:54;5.53;;;3.90;;
5054;SDS011;13829;48.990;8.346;2024-02-14T04:07:22;4.77;;;2.97;;
5054;SDS011;13829;48.990;8.346;2024-02-14T04:09:49;7.57;;;3.10;;
5054;SDS011;13829;48.990;8.346;2024-02-14T04:12:16;5.90;;;3.43;;
5054;SDS011;13829;48.990;8.346;2024-02-14T04:14:43;5.10;;;3.00;;
5054;SDS011;13829;48.990;8.346;2024-02-14T04:17:10;5.07;;;3.10;;
5054;SDS011;13829;48.990;8.346;2024-02-14T04:19:37;4.43;;;3.00;;
5054;SDS011;13829;48.990;8.346;2024-02-14T04:22:04;6.47;;;2.40;;
5054;SDS011;13829;48.990;8.346;2024-02-14T04:24:34;2.43;;;2.10;;
5054;SDS011;13829;48.990;8.346;2024-02-14T04:27:01;3.77;;;2.10;;
5054;SDS011;13829;48.990;8.346;2024-02-14T04:29:29;2.67;;;2.13;;
5054;SDS011;13829;48.990;8.346;2024-02-14T04:31:58;2.90;;;2.17;;
5054;SDS011;13829;48.990;8.346;2024-02-14T04:34:25;3.83;;;2.07;;
5054;SDS011;13829;48.990;8.346;2024-02-14T04:36:52;1.97;;;1.50;;
5054;SDS011;13829;48.990;8.346;2024-02-14T04:39:19;5.53;;;2.23;;
5054;SDS011;13829;48.990;8.346;2024-02-14T04:41:47;3.60;;;1.67;;
5054;SDS011;13829;48.990;8.346;2024-02-14T04:44:15;3.37;;;1.67;;
5054;SDS011;13829;48.990;8.346;2024-02-14T04:46:42;3.10;;;1.70;;
5054;SDS011;13829;48.990;8.346;2024-02-14T04:49:09;4.47;;;1.60;;
5054;SDS011;13829;48.990;8.346;2024-02-14T04:51:36;1.47;;;1.20;;
5054;SDS011;13829;48.990;8.346;2024-02-14T04:54:03;3.93;;;1.50;;
5054;SDS011;13829;48.990;8.346;2024-02-14T04:56:30;2.03;;;1.50;;
5054;SDS011;13829;48.990;8.346;2024-02-14T04:58:59;4.23;;;1.60;;
5054;SDS011;13829;48.990;8.346;2024-02-14T05:01:27;3.87;;;1.67;;
5054;SDS011;13829;48.990;8.346;2024-02-14T05:03:53;3.37;;;1.40;;
5054;SDS011;13829;48.990;8.346;2024-02-14T05:06:20;2.97;;;1.60;;
5054;SDS011;13829;48.990;8.346;2024-02-14T05:08:47;4.57;;;1.73;;
5054;SDS011;13829;48.990;8.346;2024-02-14T05:11:16;4.43;;;1.50;;
5054;SDS011;13829;48.990;8.346;2024-02-14T05:13:43;4.60;;;2.00;;
5054;SDS011;13829;48.990;8.346;2024-02-14T05:16:13;2.13;;;1.67;;
5054;SDS011;13829;48.990;8.346;2024-02-14T05:18:39;2.57;;;1.63;;
5054;SDS011;13829;48.990;8.346;2024-02-14T05:21:07;2.90;;;1.50;;
5054;SDS011;13829;48.990;8.346;2024-02-14T05:23:34;6.37;;;1.63;;
5054;SDS011;13829;48.990;8.346;2024-02-14T05:26:02;5.70;;;2.00;;
5054;SDS011;13829;48.990;8.346;2024-02-14T05:28:29;2.13;;;1.57;;
5054;SDS011;13829;48.990;8.346;2024-02-14T05:30:56;4.37;;;1.63;;
5054;SDS011;13829;48.990;8.346;2024-02-14T05:33:26;3.27;;;1.50;;
5054;SDS011;13829;48.990;8.346;2024-02-14T05:35:53;3.43;;;1.67;;
5054;SDS011;13829;48.990;8.346;2024-02-14T05:38:20;2.90;;;1.80;;
5054;SDS011;13829;48.990;8.346;2024-02-14T05:40:48;2.50;;;1.60;;
5054;SDS011;13829;48.990;8.346;2024-02-14T05:43:16;3.83;;;1.83;;
5054;SDS011;13829;48.990;8.346;2024-02-14T05:45:43;3.13;;;1.80;;
5054;SDS011;13829;48.990;8.346;2024-02-14T05:48:10;3.57;;;1.57;;
5054;SDS011;13829;48.990;8.346;2024-02-14T05:50:39;4.47;;;1.90;;
5054;SDS011;13829;48.990;8.346;2024-02-14T05:53:06;4.03;;;2.07;;
5054;SDS011;13829;48.990;8.346;2024-02-14T05:55:32;5.63;;;1.97;;
5054;SDS011;13829;48.990;8.346;2024-02-14T05:57:59;4.63;;;2.00;;
5054;SDS011;13829;48.990;8.346;2024-02-14T06:00:26;2.50;;;1.77;;
5054;SDS011;13829;48.990;8.346;2024-02-14T06:02:53;4.00;;;1.73;;
5054;SDS011;13829;48.990;8.346;2024-02-14T06:05:20;3.27;;;1.90;;
5054;SDS011;13829;48.990;8.346;2024-02-14T06:07:49;5.17;;;1.87;;
5054;SDS011;13829;48.990;8.346;2024-02-14T06:10:16;4.20;;;1.90;;
5054;SDS011;13829;48.990;8.346;2024-02-14T06:12:43;3.20;;;2.10;;
5054;SDS011;13829;48.990;8.346;2024-02-14T06:15:13;2.73;;;1.80;;
5054;SDS011;13829;48.990;8.346;2024-02-14T06:17:39;3.10;;;1.67;;
5054;SDS011;13829;48.990;8.346;2024-02-14T06:20:07;4.33;;;1.47;;
5054;SDS011;13829;48.990;8.346;2024-02-14T06:22:35;3.60;;;1.83;;
5054;SDS011;13829;48.990;8.346;2024-02-14T06:25:03;3.00;;;1.80;;
5054;SDS011;13829;48.990;8.346;2024-02-14T06:27:31;2.37;;;1.40;;
5054;SDS011;13829;48.990;8.346;2024-02-14T06:29:58;2.63;;;1.80;;
5054;SDS011;13829;48.990;8.346;2024-02-14T06:32:25;3.00;;;1.70;;
5054;SDS011;13829;48.990;8.346;2024-02-14T06:34:52;10.00;;;2.13;;
5054;SDS011;13829;48.990;8.346;2024-02-14T06:37:19;2.83;;;1.83;;
5054;SDS011;13829;48.990;8.346;2024-02-14T06:39:46;4.20;;;2.33;;
5054;SDS011;13829;48.990;8.346;2024-02-14T06:42:17;5.27;;;1.70;;
5054;SDS011;13829;48.990;8.346;2024-02-14T06:44:44;3.40;;;1.90;;
5054;SDS011;13829;48.990;8.346;2024-02-14T06:47:11;4.87;;;1.90;;
5054;SDS011;13829;48.990;8.346;2024-02-14T06:49:38;4.90;;;1.70;;
5054;SDS011;13829;48.990;8.346;2024-02-14T06:52:05;3.80;;;2.07;;
5054;SDS011;13829;48.990;8.346;2024-02-14T06:54:32;6.70;;;2.30;;
5054;SDS011;13829;48.990;8.346;2024-02-14T06:56:59;5.97;;;2.00;;
5054;SDS011;13829;48.990;8.346;2024-02-14T06:59:27;4.13;;;2.07;;
5054;SDS011;13829;48.990;8.346;2024-02-14T07:01:54;4.30;;;2.20;;
5054;SDS011;13829;48.990;8.346;2024-02-14T07:04:22;6.17;;;2.07;;
5054;SDS011;13829;48.990;8.346;2024-02-14T07:06:50;8.23;;;2.07;;
5054;SDS011;13829;48.990;8.346;2024-02-14T07:09:18;4.33;;;2.30;;
5054;SDS011;13829;48.990;8.346;2024-02-14T07:11:46;6.23;;;2.40;;
5054;SDS011;13829;48.990;8.346;2024-02-14T07:14:12;6.27;;;2.17;;
5054;SDS011;13829;48.990;8.346;2024-02-14T07:16:41;4.57;;;1.90;;
5054;SDS011;13829;48.990;8.346;2024-02-14T07:19:08;6.43;;;2.33;;
5054;SDS011;13829;48.990;8.346;2024-02-14T07:21:35;3.23;;;2.00;;
5054;SDS011;13829;48.990;8.346;2024-02-14T07:24:03;6.60;;;2.40;;
5054;SDS011;13829;48.990;8.346;2024-02-14T07:26:31;5.03;;;2.40;;
5054;SDS011;13829;48.990;8.346;2024-02-14T07:28:58;7.50;;;2.47;;
5054;SDS011;13829;48.990;8.346;2024-02-14T07:31:27;6.83;;;2.43;;
5054;SDS011;13829;48.990;8.346;2024-02-14T07:33:57;9.10;;;2.47;;
5054;SDS011;13829;48.990;8.346;2024-02-14T07:36:24;4.73;;;2.03;;
5054;SDS011;13829;48.990;8.346;2024-02-14T07:38:51;4.03;;;2.03;;
5054;SDS011;13829;48.990;8.346;2024-02-14T07:41:18;5.57;;;1.87;;
5054;SDS011;13829;48.990;8.346;2024-02-14T07:43:44;4.53;;;2.00;;
5054;SDS011;13829;48.990;8.346;2024-02-14T07:46:15;5.10;;;1.90;;
5054;SDS011;13829;48.990;8.346;2024-02-14T07:48:43;4.60;;;2.17;;
5054;SDS011;13829;48.990;8.346;2024-02-14T07:51:12;4.17;;;1.87;;
5054;SDS011;13829;48.990;8.346;2024-02-14T07:53:39;5.47;;;2.00;;
5054;SDS011;13829;48.990;8.346;2024-02-14T07:56:06;4.53;;;2.17;;
5054;SDS011;13829;48.990;8.346;2024-02-14T07:58:33;2.47;;;1.80;;
5054;SDS011;13829;48.990;8.346;2024-02-14T08:01:00;5.00;;;1.90;;
5054;SDS011;13829;48.990;8.346;2024-02-14T08:03:29;6.83;;;2.33;;
5054;SDS011;13829;48.990;8.346;2024-02-14T08:05:56;5.67;;;2.23;;
5054;SDS011;13829;48.990;8.346;2024-02-14T08:08:24;4.27;;;2.23;;
5054;SDS011;13829;48.990;8.346;2024-02-14T08:10:52;5.73;;;2.10;;
5054;SDS011;13829;48.990;8.346;2024-02-14T08:13:20;3.77;;;2.23;;
5054;SDS011;13829;48.990;8.346;2024-02-14T08:15:46;6.03;;;2.60;;
5054;SDS011;13829;48.990;8.346;2024-02-14T08:18:14;6.10;;;2.10;;
5054;SDS011;13829;48.990;8.346;2024-02-14T08:20:41;5.47;;;2.30;;
5054;SDS011;13829;48.990;8.346;2024-02-14T08:23:08;6.33;;;2.40;;
5054;SDS011;13829;48.990;8.346;2024-02-14T08:25:37;5.27;;;2.10;;
5054;SDS011;13829;48.990;8.346;2024-02-14T08:28:04;8.50;;;2.07;;
5054;SDS011;13829;48.990;8.346;2024-02-14T08:30:32;4.40;;;2.27;;
5054;SDS011;13829;48.990;8.346;2024-02-14T08:32:59;4.77;;;2.20;;
5054;SDS011;13829;48.990;8.346;2024-02-14T08:35:26;3.27;;;1.70;;
5054;SDS011;13829;48.990;8.346;2024-02-14T08:37:53;5.83;;;2.27;;
5054;SDS011;13829;48.990;8.346;2024-02-14T08:40:20;3.87;;;2.17;;
5054;SDS011;13829;48.990;8.346;2024-02-14T08:42:49;3.23;;;2.17;;
5054;SDS011;13829;48.990;8.346;2024-02-14T08:45:16;6.17;;;2.67;;
5054;SDS011;13829;48.990;8.346;2024-02-14T08:47:43;22.83;;;3.67;;
5054;SDS011;13829;48.990;8.346;2024-02-14T08:50:10;8.77;;;2.87;;
5054;SDS011;13829;48.990;8.346;2024-02-14T08:52:37;13.47;;;2.90;;
5054;SDS011;13829;48.990;8.346;2024-02-14T08:55:05;6.03;;;2.10;;
5054;SDS011;13829;48.990;8.346;2024-02-14T08:57:39;9.70;;;2.57;;
5054;SDS011;13829;48.990;8.346;2024-02-14T09:00:08;9.53;;;2.63;;
5054;SDS011;13829;48.990;8.346;2024-02-14T09:02:40;3.23;;;1.87;;
5054;SDS011;13829;48.990;8.346;2024-02-14T09:05:07;4.87;;;2.00;;
5054;SDS011;13829;48.990;8.346;2024-02-14T09:07:34;8.80;;;2.40;;
5054;SDS011;13829;48.990;8.346;2024-02-14T09:10:02;5.27;;;2.43;;
5054;SDS011;13829;48.990;8.346;2024-02-14T09:12:30;9.20;;;2.30;;
5054;SDS011;13829;48.990;8.346;2024-02-14T09:14:58;6.20;;;2.03;;
5054;SDS011;13829;48.990;8.346;2024-02-14T09:17:26;5.87;;;2.20;;
5054;SDS011;13829;48.990;8.346;2024-02-14T09:19:53;4.13;;;1.97;;
5054;SDS011;13829;48.990;8.346;2024-02-14T09:22:20;6.37;;;2.37;;
5054;SDS011;13829;48.990;8.346;2024-02-14T09:24:47;9.33;;;2.23;;
5054;SDS011;13829;48.990;8.346;2024-02-14T09:27:14;8.70;;;2.30;;
5054;SDS011;13829;48.990;8.346;2024-02-14T09:29:41;3.30;;;1.90;;
5054;SDS011;13829;48.990;8.346;2024-02-14T09:32:08;12.53;;;2.53;;
5054;SDS011;13829;48.990;8.346;2024-02-14T09:34:37;3.57;;;2.07;;
5054;SDS011;13829;48.990;8.346;2024-02-14T09:37:04;11.60;;;2.50;;
5054;SDS011;13829;48.990;8.346;2024-02-14T09:39:31;4.23;;;2.20;;
5054;SDS011;13829;48.990;8.346;2024-02-14T09:42:01;5.10;;;2.23;;
5054;SDS011;13829;48.990;8.346;2024-02-14T09:44:35;4.13;;;1.97;;
5054;SDS011;13829;48.990;8.346;2024-02-14T09:47:05;4.40;;;2.00;;
5054;SDS011;13829;48.990;8.346;2024-02-14T09:49:34;3.23;;;1.70;;
5054;SDS011;13829;48.990;8.346;2024-02-14T09:52:04;2.37;;;1.97;;
5054;SDS011;13829;48.990;8.346;2024-02-14T09:54:35;5.33;;;2.20;;
5054;SDS011;13829;48.990;8.346;2024-02-14T09:57:05;4.50;;;2.37;;
5054;SDS011;13829;48.990;8.346;2024-02-14T09:59:32;5.70;;;2.30;;
5054;SDS011;13829;48.990;8.346;2024-02-14T10:02:01;6.10;;;2.03;;
5054;SDS011;13829;48.990;8.346;2024-02-14T10:04:28;4.70;;;2.60;;
5054;SDS011;13829;48.990;8.346;2024-02-14T10:06:57;6.77;;;2.30;;
5054;SDS011;13829;48.990;8.346;2024-02-14T10:09:25;4.50;;;2.30;;
5054;SDS011;13829;48.990;8.346;2024-02-14T10:11:53;6.00;;;2.23;;
5054;SDS011;13829;48.990;8.346;2024-02-14T10:14:20;3.90;;;2.40;;
5054;SDS011;13829;48.990;8.346;2024-02-14T10:16:49;6.53;;;2.40;;
5054;SDS011;13829;48.990;8.346;2024-02-14T10:19:17;3.20;;;2.30;;
5054;SDS011;13829;48.990;8.346;2024-02-14T10:21:54;4.63;;;2.73;;
5054;SDS011;13829;48.990;8.346;2024-02-14T10:24:24;3.83;;;2.33;;
5054;SDS011;13829;48.990;8.346;2024-02-14T10:26:51;3.93;;;1.90;;
5054;SDS011;13829;48.990;8.346;2024-02-14T10:29:19;5.03;;;2.27;;
5054;SDS011;13829;48.990;8.346;2024-02-14T10:31:46;3.60;;;2.03;;
5054;SDS011;13829;48.990;8.346;2024-02-14T10:34:13;6.17;;;2.30;;
5054;SDS011;13829;48.990;8.346;2024-02-14T10:36:41;5.27;;;2.43;;
5054;SDS011;13829;48.990;8.346;2024-02-14T10:39:12;6.87;;;2.20;;
5054;SDS011;13829;48.990;8.346;2024-02-14T10:41:41;6.50;;;2.10;;
5054;SDS011;13829;48.990;8.346;2024-02-14T10:44:09;6.87;;;2.10;;
5054;SDS011;13829;48.990;8.346;2024-02-14T10:46:37;3.83;;;1.80;;
5054;SDS011;13829;48.990;8.346;2024-02-14T10:49:07;5.83;;;2.10;;
5054;SDS011;13829;48.990;8.346;2024-02-14T10:51:38;7.50;;;2.30;;
5054;SDS011;13829;48.990;8.346;2024-02-14T10:54:10;6.90;;;2.30;;
5054;SDS011;13829;48.990;8.346;2024-02-14T10:56:42;3.90;;;2.17;;
5054;SDS011;13829;48.990;8.346;2024-02-14T10:59:15;6.10;;;2.00;;
5054;SDS011;13829;48.990;8.346;2024-02-14T11:01:45;3.90;;;2.07;;
5054;SDS011;13829;48.990;8.346;2024-02-14T11:04:14;3.07;;;2.20;;
5054;SDS011;13829;48.990;8.346;2024-02-14T11:06:45;2.87;;;2.00;;
5054;SDS011;13829;48.990;8.346;2024-02-14T11:09:14;5.93;;;2.00;;
5054;SDS011;13829;48.990;8.346;2024-02-14T11:11:41;6.53;;;2.27;;
5054;SDS011;13829;48.990;8.346;2024-02-14T11:14:09;3.20;;;2.20;;
5054;SDS011;13829;48.990;8.346;2024-02-14T11:16:37;2.77;;;1.90;;
5054;SDS011;13829;48.990;8.346;2024-02-14T11:19:05;4.57;;;2.37;;
5054;SDS011;13829;48.990;8.346;2024-02-14T11:21:35;4.03;;;2.17;;
5054;SDS011;13829;48.990;8.346;2024-02-14T11:24:07;3.37;;;2.00;;
5054;SDS011;13829;48.990;8.346;2024-02-14T11:26:45;4.17;;;2.03;;
5054;SDS011;13829;48.990;8.346;2024-02-14T11:29:14;3.00;;;1.93;;
5054;SDS011;13829;48.990;8.346;2024-02-14T11:31:42;5.50;;;1.97;;
5054;SDS011;13829;48.990;8.346;2024-02-14T11:34:11;3.00;;;1.93;;
5054;SDS011;13829;48.990;8.346;2024-02-14T11:36:39;6.70;;;2.23;;
5054;SDS011;13829;48.990;8.346;2024-02-14T11:39:09;6.67;;;1.80;;
5054;SDS011;13829;48.990;8.346;2024-02-14T11:41:37;2.93;;;1.90;;
5054;SDS011;13829;48.990;8.346;2024-02-14T11:44:06;5.47;;;1.53;;
5054;SDS011;13829;48.990;8.346;2024-02-14T11:46:34;10.60;;;2.30;;
5054;SDS011;13829;48.990;8.346;2024-02-14T11:49:03;4.53;;;1.73;;
5054;SDS011;13829;48.990;8.346;2024-02-14T11:51:32;3.57;;;1.33;;
5054;SDS011;13829;48.990;8.346;2024-02-14T11:54:01;5.33;;;2.10;;
5054;SDS011;13829;48.990;8.346;2024-02-14T11:56:31;2.20;;;1.63;;
5054;SDS011;13829;48.990;8.346;2024-02-14T11:58:59;4.50;;;1.47;;
5054;SDS011;13829;48.990;8.346;2024-02-14T12:01:29;4.23;;;1.70;;
5054;SDS011;13829;48.990;8.346;2024-02-14T12:03:57;3.47;;;1.50;;
5054;SDS011;13829;48.990;8.346;2024-02-14T12:06:25;1.50;;;1.23;;
5054;SDS011;13829;48.990;8.346;2024-02-14T12:08:53;2.00;;;1.13;;
5054;SDS011;13829;48.990;8.346;2024-02-14T12:11:21;1.90;;;1.43;;
5054;SDS011;13829;48.990;8.346;2024-02-14T12:13:50;5.57;;;1.30;;
5054;SDS011;13829;48.990;8.346;2024-02-14T12:16:19;6.13;;;1.47;;
5054;SDS011;13829;48.990;8.346;2024-02-14T12:18:48;7.70;;;1.67;;
5054;SDS011;13829;48.990;8.346;2024-02-14T12:21:15;3.93;;;1.23;;
5054;SDS011;13829;48.990;8.346;2024-02-14T12:23:42;2.53;;;1.53;;
5054;SDS011;13829;48.990;8.346;2024-02-14T12:26:09;5.27;;;1.40;;
5054;SDS011;13829;48.990;8.346;2024-02-14T12:28:45;3.60;;;1.20;;
5054;SDS011;13829;48.990;8.346;2024-02-14T12:31:21;3.50;;;1.20;;
5054;SDS011;13829;48.990;8.346;2024-02-14T12:33:50;4.03;;;1.40;;
5054;SDS011;13829;48.990;8.346;2024-02-14T12:36:19;4.23;;;1.10;;
5054;SDS011;13829;48.990;8.346;2024-02-14T12:38:46;6.63;;;1.43;;
5054;SDS011;13829;48.990;8.346;2024-02-14T12:41:13;1.37;;;1.10;;
5054;SDS011;13829;48.990;8.346;2024-02-14T12:43:40;2.13;;;1.20;;
5054;SDS011;13829;48.990;8.346;2024-02-14T12:46:07;3.63;;;1.50;;
5054;SDS011;13829;48.990;8.346;2024-02-14T12:48:34;2.00;;;1.20;;
5054;SDS011;13829;48.990;8.346;2024-02-14T12:51:03;1.20;;;1.10;;
5054;SDS011;13829;48.990;8.346;2024-02-14T12:53:30;3.20;;;1.37;;
5054;SDS011;13829;48.990;8.346;2024-02-14T12:55:57;2.27;;;1.50;;
5054;SDS011;13829;48.990;8.346;2024-02-14T12:58:23;2.23;;;0.83;;
5054;SDS011;13829;48.990;8.346;2024-02-14T13:00:51;3.80;;;1.57;;
5054;SDS011;13829;48.990;8.346;2024-02-14T13:03:18;4.30;;;1.20;;
5054;SDS011;13829;48.990;8.346;2024-02-14T13:05:46;1.40;;;0.97;;
5054;SDS011;13829;48.990;8.346;2024-02-14T13:08:14;6.17;;;1.30;;
5054;SDS011;13829;48.990;8.346;2024-02-14T13:10:42;6.93;;;1.80;;
5054;SDS011;13829;48.990;8.346;2024-02-14T13:13:09;6.83;;;1.73;;
5054;SDS011;13829;48.990;8.346;2024-02-14T13:15:37;8.67;;;1.50;;
5054;SDS011;13829;48.990;8.346;2024-02-14T13:18:05;3.50;;;1.27;;
5054;SDS011;13829;48.990;8.346;2024-02-14T13:20:32;2.97;;;1.70;;
5054;SDS011;13829;48.990;8.346;2024-02-14T13:23:00;2.77;;;1.37;;
5054;SDS011;13829;48.990;8.346;2024-02-14T13:25:29;1.90;;;1.10;;
5054;SDS011;13829;48.990;8.346;2024-02-14T13:27:56;2.43;;;1.23;;
5054;SDS011;13829;48.990;8.346;2024-02-14T13:30:23;4.57;;;1.20;;
5054;SDS011;13829;48.990;8.346;2024-02-14T13:32:50;8.53;;;1.63;;
5054;SDS011;13829;48.990;8.346;2024-02-14T13:35:17;6.10;;;1.60;;
5054;SDS011;13829;48.990;8.346;2024-02-14T13:37:44;3.03;;;1.27;;
5054;SDS011;13829;48.990;8.346;2024-02-14T13:40:11;4.27;;;1.40;;
5054;SDS011;13829;48.990;8.346;2024-02-14T13:42:39;2.43;;;1.47;;
5054;SDS011;13829;48.990;8.346;2024-02-14T13:45:07;2.87;;;1.60;;
5054;SDS011;13829;48.990;8.346;2024-02-14T13:47:35;2.00;;;1.30;;
5054;SDS011;13829;48.990;8.346;2024-02-14T13:50:04;6.87;;;2.40;;
5054;SDS011;13829;48.990;8.346;2024-02-14T13:52:31;4.87;;;2.37;;
5054;SDS011;13829;48.990;8.346;2024-02-14T13:54:59;4.27;;;2.07;;
5054;SDS011;13829;48.990;8.346;2024-02-14T13:57:27;2.67;;;1.87;;
5054;SDS011;13829;48.990;8.346;2024-02-14T13:59:56;3.60;;;1.80;;
5054;SDS011;13829;48.990;8.346;2024-02-14T14:02:23;3.87;;;2.00;;
5054;SDS011;13829;48.990;8.346;2024-02-14T14:04:50;4.50;;;2.00;;
5054;SDS011;13829;48.990;8.346;2024-02-14T14:07:18;4.93;;;2.10;;
5054;SDS011;13829;48.990;8.346;2024-02-14T14:09:45;2.47;;;1.40;;
5054;SDS011;13829;48.990;8.346;2024-02-14T14:12:12;3.77;;;1.37;;
5054;SDS011;13829;48.990;8.346;2024-02-14T14:14:39;4.57;;;1.30;;
5054;SDS011;13829;48.990;8.346;2024-02-14T14:17:07;2.67;;;1.33;;
5054;SDS011;13829;48.990;8.346;2024-02-14T14:19:34;2.60;;;1.37;;
5054;SDS011;13829;48.990;8.346;2024-02-14T14:22:01;1.83;;;1.27;;
5054;SDS011;13829;48.990;8.346;2024-02-14T14:24:28;14.00;;;2.53;;
5054;SDS011;13829;48.990;8.346;2024-02-14T14:26:56;3.50;;;1.70;;
5054;SDS011;13829;48.990;8.346;2024-02-14T14:29:23;7.60;;;1.53;;
5054;SDS011;13829;48.990;8.346;2024-02-14T14:31:53;6.23;;;1.60;;
5054;SDS011;13829;48.990;8.346;2024-02-14T14:34:21;2.03;;;1.40;;
5054;SDS011;13829;48.990;8.346;2024-02-14T14:36:48;4.37;;;1.60;;
5054;SDS011;13829;48.990;8.346;2024-02-14T14:39:15;2.67;;;1.47;;
5054;SDS011;13829;48.990;8.346;2024-02-14T14:41:42;1.87;;;1.40;;
5054;SDS011;13829;48.990;8.346;2024-02-14T14:44:09;2.80;;;1.70;;
5054;SDS011;13829;48.990;8.346;2024-02-14T14:46:37;2.10;;;1.40;;
5054;SDS011;13829;48.990;8.346;2024-02-14T14:49:07;2.93;;;1.50;;
5054;SDS011;13829;48.990;8.346;2024-02-14T14:51:36;6.10;;;1.83;;
5054;SDS011;13829;48.990;8.346;2024-02-14T14:54:04;2.23;;;1.70;;
5054;SDS011;13829;48.990;8.346;2024-02-14T14:56:31;2.83;;;1.60;;
5054;SDS011;13829;48.990;8.346;2024-02-14T14:58:58;5.47;;;1.27;;
5054;SDS011;13829;48.990;8.346;2024-02-14T15:01:28;2.10;;;1.40;;
5054;SDS011;13829;48.990;8.346;2024-02-14T15:03:55;2.33;;;1.87;;